sensor_id;sensor_type;location;lat;lon;timestamp;noise_LAeq;noise_LA_min;noise_LA_max;noise_LA01;noise_LA95
66274;Laerm;58450;52.150;4.466;2023-03-21T00:01:01;45.87;41.89;55.93;;
66274;Laerm;58450;52.150;4.466;2023-03-21T00:03:31;45.74;40.87;57.91;;
66274;Laerm;58450;52.150;4.466;2023-03-21T00:06:03;47.90;40.16;66.37;;
66274;Laerm;58450;52.150;4.466;2023-03-21T00:08:31;48.76;41.13;68.64;;
66274;Laerm;58450;52.150;4.466;2023-03-21T00:11:03;45.59;40.64;51.41;;
66274;Laerm;58450;52.150;4.466;2023-03-21T00:13:32;45.43;41.72;53.25;;
66274;Laerm;58450;52.150;4.466;2023-03-21T00:16:05;48.79;39.76;73.13;;
66274;Laerm;58450;52.150;4.466;2023-03-21T00:18:35;45.46;40.55;52.64;;
66274;Laerm;58450;52.150;4.466;2023-03-21T00:21:09;44.59;40.04;53.89;;
66274;Laerm;58450;52.150;4.466;2023-03-21T00:23:38;47.37;42.01;65.69;;
66274;Laerm;58450;52.150;4.466;2023-03-21T00:26:07;48.49;41.43;62.85;;
66274;Laerm;58450;52.150;4.466;2023-03-21T00:28:35;48.90;41.35;62.47;;
66274;Laerm;58450;52.150;4.466;2023-03-21T00:31:04;50.53;40.68;62.60;;
66274;Laerm;58450;52.150;4.466;2023-03-21T00:33:32;53.54;46.13;61.13;;
66274;Laerm;58450;52.150;4.466;2023-03-21T00:36:00;48.85;44.28;55.58;;
66274;Laerm;58450;52.150;4.466;2023-03-21T00:38:28;46.48;41.77;63.22;;
66274;Laerm;58450;52.150;4.466;2023-03-21T00:40:55;48.57;41.83;61.01;;
66274;Laerm;58450;52.150;4.466;2023-03-21T00:43:24;45.17;40.56;51.43;;
66274;Laerm;58450;52.150;4.466;2023-03-21T00:45:56;47.15;41.13;58.62;;
66274;Laerm;58450;52.150;4.466;2023-03-21T00:48:25;45.13;40.42;52.06;;
66274;Laerm;58450;52.150;4.466;2023-03-21T00:50:55;44.41;40.31;48.63;;
66274;Laerm;58450;52.150;4.466;2023-03-21T00:53:25;44.51;40.37;47.79;;
66274;Laerm;58450;52.150;4.466;2023-03-21T00:55:53;45.16;40.18;61.53;;
66274;Laerm;58450;52.150;4.466;2023-03-21T00:58:20;44.90;40.49;51.31;;
66274;Laerm;58450;52.150;4.466;2023-03-21T01:00:49;46.44;39.85;65.12;;
66274;Laerm;58450;52.150;4.466;2023-03-21T01:03:17;45.47;41.63;50.86;;
66274;Laerm;58450;52.150;4.466;2023-03-21T01:05:47;45.24;41.20;52.52;;
66274;Laerm;58450;52.150;4.466;2023-03-21T01:08:33;45.52;40.84;60.05;;
66274;Laerm;58450;52.150;4.466;2023-03-21T01:11:06;45.64;41.56;52.61;;
66274;Laerm;58450;52.150;4.466;2023-03-21T01:13:34;45.67;42.04;53.14;;
66274;Laerm;58450;52.150;4.466;2023-03-21T01:16:06;45.76;41.13;55.48;;
66274;Laerm;58450;52.150;4.466;2023-03-21T01:18:36;45.51;41.22;55.11;;
66274;Laerm;58450;52.150;4.466;2023-03-21T01:21:08;45.09;40.79;51.86;;
66274;Laerm;58450;52.150;4.466;2023-03-21T01:23:39;45.27;42.15;51.45;;
66274;Laerm;58450;52.150;4.466;2023-03-21T01:26:08;46.85;41.66;59.79;;
66274;Laerm;58450;52.150;4.466;2023-03-21T01:28:39;50.56;42.37;60.01;;
66274;Laerm;58450;52.150;4.466;2023-03-21T01:31:11;50.53;43.23;63.19;;
66274;Laerm;58450;52.150;4.466;2023-03-21T01:33:40;49.29;43.19;61.87;;
66274;Laerm;58450;52.150;4.466;2023-03-21T01:36:15;53.00;45.31;62.33;;
66274;Laerm;58450;52.150;4.466;2023-03-21T01:38:43;47.71;41.48;57.54;;
66274;Laerm;58450;52.150;4.466;2023-03-21T01:41:20;48.49;39.60;69.68;;
66274;Laerm;58450;52.150;4.466;2023-03-21T01:43:51;43.90;39.49;56.28;;
66274;Laerm;58450;52.150;4.466;2023-03-21T01:46:34;43.59;38.73;55.89;;
66274;Laerm;58450;52.150;4.466;2023-03-21T01:49:11;48.09;40.06;57.67;;
66274;Laerm;58450;52.150;4.466;2023-03-21T01:51:45;51.83;43.74;59.32;;
66274;Laerm;58450;52.150;4.466;2023-03-21T01:54:20;51.18;44.23;59.36;;
66274;Laerm;58450;52.150;4.466;2023-03-21T01:56:52;47.34;42.49;55.56;;
66274;Laerm;58450;52.150;4.466;2023-03-21T01:59:27;45.24;40.21;54.18;;
66274;Laerm;58450;52.150;4.466;2023-03-21T02:02:01;44.90;40.57;61.28;;
66274;Laerm;58450;52.150;4.466;2023-03-21T02:04:33;43.92;40.11;54.05;;
66274;Laerm;58450;52.150;4.466;2023-03-21T02:07:06;43.19;39.03;55.97;;
66274;Laerm;58450;52.150;4.466;2023-03-21T02:09:38;42.84;38.80;51.96;;
66274;Laerm;58450;52.150;4.466;2023-03-21T02:12:08;43.06;38.67;53.56;;
66274;Laerm;58450;52.150;4.466;2023-03-21T02:14:37;47.75;38.96;71.81;;
66274;Laerm;58450;52.150;4.466;2023-03-21T02:17:18;43.52;39.68;54.16;;
66274;Laerm;58450;52.150;4.466;2023-03-21T02:20:45;43.16;38.90;53.78;;
66274;Laerm;58450;52.150;4.466;2023-03-21T02:26:55;45.92;39.07;62.59;;
66274;Laerm;58450;52.150;4.466;2023-03-21T02:36:26;43.46;39.38;53.48;;
66274;Laerm;58450;52.150;4.466;2023-03-21T02:39:07;43.24;38.20;56.16;;
66274;Laerm;58450;52.150;4.466;2023-03-21T02:41:46;43.39;39.78;53.41;;
66274;Laerm;58450;52.150;4.466;2023-03-21T02:44:22;44.58;39.49;52.96;;
66274;Laerm;58450;52.150;4.466;2023-03-21T02:46:58;43.77;39.03;53.70;;
66274;Laerm;58450;52.150;4.466;2023-03-21T02:49:34;44.74;39.81;57.34;;
66274;Laerm;58450;52.150;4.466;2023-03-21T02:52:13;48.42;41.02;68.85;;
66274;Laerm;58450;52.150;4.466;2023-03-21T02:54:46;44.02;40.53;52.78;;
66274;Laerm;58450;52.150;4.466;2023-03-21T02:57:18;44.44;40.77;61.54;;
66274;Laerm;58450;52.150;4.466;2023-03-21T02:59:48;44.30;40.19;60.30;;
66274;Laerm;58450;52.150;4.466;2023-03-21T03:02:22;44.00;39.70;54.28;;
66274;Laerm;58450;52.150;4.466;2023-03-21T03:04:51;44.43;40.56;58.09;;
66274;Laerm;58450;52.150;4.466;2023-03-21T03:07:34;43.99;40.61;52.70;;
66274;Laerm;58450;52.150;4.466;2023-03-21T03:10:24;44.14;40.53;53.91;;
66274;Laerm;58450;52.150;4.466;2023-03-21T03:13:08;44.21;40.34;52.35;;
66274;Laerm;58450;52.150;4.466;2023-03-21T03:15:44;44.13;40.39;54.33;;
66274;Laerm;58450;52.150;4.466;2023-03-21T03:18:25;44.68;40.74;53.50;;
66274;Laerm;58450;52.150;4.466;2023-03-21T03:21:02;50.39;40.58;66.00;;
66274;Laerm;58450;52.150;4.466;2023-03-21T03:23:41;47.19;41.04;59.49;;
66274;Laerm;58450;52.150;4.466;2023-03-21T03:26:17;46.67;40.11;62.67;;
66274;Laerm;58450;52.150;4.466;2023-03-21T03:28:52;44.26;40.61;58.12;;
66274;Laerm;58450;52.150;4.466;2023-03-21T03:31:26;43.71;39.48;52.41;;
66274;Laerm;58450;52.150;4.466;2023-03-21T03:34:01;45.54;39.63;63.75;;
66274;Laerm;58450;52.150;4.466;2023-03-21T03:36:33;43.52;39.08;57.88;;
66274;Laerm;58450;52.150;4.466;2023-03-21T03:39:08;43.41;39.78;55.68;;
66274;Laerm;58450;52.150;4.466;2023-03-21T03:41:44;43.87;39.12;53.77;;
66274;Laerm;58450;52.150;4.466;2023-03-21T03:44:12;44.44;40.76;55.78;;
66274;Laerm;58450;52.150;4.466;2023-03-21T03:46:47;43.71;40.10;51.13;;
66274;Laerm;58450;52.150;4.466;2023-03-21T03:49:22;46.06;39.23;61.59;;
66274;Laerm;58450;52.150;4.466;2023-03-21T03:51:58;43.85;40.86;52.83;;
66274;Laerm;58450;52.150;4.466;2023-03-21T03:54:32;43.95;40.01;54.45;;
66274;Laerm;58450;52.150;4.466;2023-03-21T03:57:06;43.93;40.17;52.08;;
66274;Laerm;58450;52.150;4.466;2023-03-21T03:59:36;43.78;39.42;52.52;;
66274;Laerm;58450;52.150;4.466;2023-03-21T04:02:04;44.06;40.37;52.23;;
66274;Laerm;58450;52.150;4.466;2023-03-21T04:04:32;44.64;40.57;56.75;;
66274;Laerm;58450;52.150;4.466;2023-03-21T04:07:03;44.23;40.37;57.71;;
66274;Laerm;58450;52.150;4.466;2023-03-21T04:09:31;44.65;40.59;51.45;;
66274;Laerm;58450;52.150;4.466;2023-03-21T04:11:59;43.74;40.13;52.37;;
66274;Laerm;58450;52.150;4.466;2023-03-21T04:14:28;44.35;40.40;54.53;;
66274;Laerm;58450;52.150;4.466;2023-03-21T04:16:56;46.80;40.72;60.09;;
66274;Laerm;58450;52.150;4.466;2023-03-21T04:19:23;44.56;40.91;62.59;;
66274;Laerm;58450;52.150;4.466;2023-03-21T04:21:51;43.66;40.13;52.84;;
66274;Laerm;58450;52.150;4.466;2023-03-21T04:24:19;43.64;39.83;53.02;;
66274;Laerm;58450;52.150;4.466;2023-03-21T04:26:47;45.53;40.23;57.35;;
66274;Laerm;58450;52.150;4.466;2023-03-21T04:29:15;45.76;41.41;54.61;;
66274;Laerm;58450;52.150;4.466;2023-03-21T04:31:44;44.73;41.08;56.33;;
66274;Laerm;58450;52.150;4.466;2023-03-21T04:34:15;46.11;40.92;60.33;;
66274;Laerm;58450;52.150;4.466;2023-03-21T04:36:42;45.97;40.90;57.42;;
66274;Laerm;58450;52.150;4.466;2023-03-21T04:39:12;46.04;40.91;56.92;;
66274;Laerm;58450;52.150;4.466;2023-03-21T04:41:41;45.05;41.38;54.81;;
66274;Laerm;58450;52.150;4.466;2023-03-21T04:44:11;48.56;40.79;61.21;;
66274;Laerm;58450;52.150;4.466;2023-03-21T04:46:40;48.08;41.45;59.30;;
66274;Laerm;58450;52.150;4.466;2023-03-21T04:49:10;46.16;41.67;59.09;;
66274;Laerm;58450;52.150;4.466;2023-03-21T04:51:37;45.29;41.51;54.57;;
66274;Laerm;58450;52.150;4.466;2023-03-21T04:54:05;45.78;41.99;52.73;;
66274;Laerm;58450;52.150;4.466;2023-03-21T04:56:33;46.81;41.44;58.03;;
66274;Laerm;58450;52.150;4.466;2023-03-21T04:59:07;52.46;42.98;73.92;;
66274;Laerm;58450;52.150;4.466;2023-03-21T05:01:35;45.92;41.52;54.57;;
66274;Laerm;58450;52.150;4.466;2023-03-21T05:04:03;45.74;42.21;53.77;;
66274;Laerm;58450;52.150;4.466;2023-03-21T05:06:33;48.77;42.77;59.71;;
66274;Laerm;58450;52.150;4.466;2023-03-21T05:09:03;46.53;42.40;56.35;;
66274;Laerm;58450;52.150;4.466;2023-03-21T05:11:34;49.10;42.33;64.69;;
66274;Laerm;58450;52.150;4.466;2023-03-21T05:14:03;49.12;43.19;60.03;;
66274;Laerm;58450;52.150;4.466;2023-03-21T05:16:32;47.59;42.30;67.45;;
66274;Laerm;58450;52.150;4.466;2023-03-21T05:19:01;49.41;42.48;61.98;;
66274;Laerm;58450;52.150;4.466;2023-03-21T05:21:32;47.05;42.19;63.79;;
66274;Laerm;58450;52.150;4.466;2023-03-21T05:24:07;49.11;43.25;61.13;;
66274;Laerm;58450;52.150;4.466;2023-03-21T05:26:37;48.58;43.26;61.86;;
66274;Laerm;58450;52.150;4.466;2023-03-21T05:29:05;47.31;42.78;55.30;;
66274;Laerm;58450;52.150;4.466;2023-03-21T05:31:34;46.75;42.65;58.65;;
66274;Laerm;58450;52.150;4.466;2023-03-21T05:34:02;48.94;43.59;59.62;;
66274;Laerm;58450;52.150;4.466;2023-03-21T05:36:29;48.11;43.73;58.18;;
66274;Laerm;58450;52.150;4.466;2023-03-21T05:39:00;49.19;43.86;58.56;;
66274;Laerm;58450;52.150;4.466;2023-03-21T05:41:28;47.91;43.92;56.37;;
66274;Laerm;58450;52.150;4.466;2023-03-21T05:43:56;50.92;44.98;62.59;;
66274;Laerm;58450;52.150;4.466;2023-03-21T05:46:23;49.36;44.02;69.45;;
66274;Laerm;58450;52.150;4.466;2023-03-21T05:48:51;50.06;44.17;61.13;;
66274;Laerm;58450;52.150;4.466;2023-03-21T05:51:19;48.05;43.37;61.23;;
66274;Laerm;58450;52.150;4.466;2023-03-21T05:53:46;49.55;44.50;60.24;;
66274;Laerm;58450;52.150;4.466;2023-03-21T05:56:16;48.57;44.31;57.45;;
66274;Laerm;58450;52.150;4.466;2023-03-21T05:58:43;49.38;44.30;59.84;;
66274;Laerm;58450;52.150;4.466;2023-03-21T06:01:12;58.22;45.11;72.52;;
66274;Laerm;58450;52.150;4.466;2023-03-21T06:03:40;49.82;45.24;63.33;;
66274;Laerm;58450;52.150;4.466;2023-03-21T06:06:08;49.15;45.20;59.11;;
66274;Laerm;58450;52.150;4.466;2023-03-21T06:08:36;50.87;45.71;63.50;;
66274;Laerm;58450;52.150;4.466;2023-03-21T06:11:05;49.43;44.94;59.91;;
66274;Laerm;58450;52.150;4.466;2023-03-21T06:13:39;51.21;45.76;63.41;;
66274;Laerm;58450;52.150;4.466;2023-03-21T06:16:07;50.21;46.44;59.21;;
66274;Laerm;58450;52.150;4.466;2023-03-21T06:18:35;51.57;45.76;61.70;;
66274;Laerm;58450;52.150;4.466;2023-03-21T06:21:02;49.36;45.44;59.14;;
66274;Laerm;58450;52.150;4.466;2023-03-21T06:23:30;49.93;45.82;57.93;;
66274;Laerm;58450;52.150;4.466;2023-03-21T06:25:58;53.01;46.38;71.95;;
66274;Laerm;58450;52.150;4.466;2023-03-21T06:28:25;54.24;48.49;79.68;;
66274;Laerm;58450;52.150;4.466;2023-03-21T06:30:54;55.77;50.11;78.37;;
66274;Laerm;58450;52.150;4.466;2023-03-21T06:33:22;55.06;49.13;74.01;;
66274;Laerm;58450;52.150;4.466;2023-03-21T06:35:51;54.24;49.74;69.25;;
66274;Laerm;58450;52.150;4.466;2023-03-21T06:38:20;54.57;48.46;75.99;;
66274;Laerm;58450;52.150;4.466;2023-03-21T06:40:48;55.02;49.14;78.07;;
66274;Laerm;58450;52.150;4.466;2023-03-21T06:43:16;55.76;50.56;77.67;;
66274;Laerm;58450;52.150;4.466;2023-03-21T06:45:44;54.74;50.47;70.46;;
66274;Laerm;58450;52.150;4.466;2023-03-21T06:48:13;56.41;50.28;74.64;;
66274;Laerm;58450;52.150;4.466;2023-03-21T06:50:41;54.91;49.20;78.78;;
66274;Laerm;58450;52.150;4.466;2023-03-21T06:53:08;54.55;49.99;77.41;;
66274;Laerm;58450;52.150;4.466;2023-03-21T06:55:36;54.94;49.56;81.25;;
66274;Laerm;58450;52.150;4.466;2023-03-21T06:58:04;54.68;49.42;75.68;;
66274;Laerm;58450;52.150;4.466;2023-03-21T07:00:31;55.34;50.34;74.36;;
66274;Laerm;58450;52.150;4.466;2023-03-21T07:02:59;55.27;49.21;74.64;;
66274;Laerm;58450;52.150;4.466;2023-03-21T07:05:28;55.54;49.47;78.49;;
66274;Laerm;58450;52.150;4.466;2023-03-21T07:07:56;57.62;50.05;78.53;;
66274;Laerm;58450;52.150;4.466;2023-03-21T07:10:24;58.43;49.00;80.04;;
66274;Laerm;58450;52.150;4.466;2023-03-21T07:12:51;56.01;49.82;76.47;;
66274;Laerm;58450;52.150;4.466;2023-03-21T07:15:19;55.91;50.33;79.70;;
66274;Laerm;58450;52.150;4.466;2023-03-21T07:17:47;55.17;50.67;74.89;;
66274;Laerm;58450;52.150;4.466;2023-03-21T07:20:15;55.57;49.76;80.27;;
66274;Laerm;58450;52.150;4.466;2023-03-21T07:22:44;55.48;49.71;73.92;;
66274;Laerm;58450;52.150;4.466;2023-03-21T07:25:12;55.69;50.15;77.93;;
66274;Laerm;58450;52.150;4.466;2023-03-21T07:27:39;56.49;50.33;81.72;;
66274;Laerm;58450;52.150;4.466;2023-03-21T07:30:09;60.17;52.37;79.68;;
66274;Laerm;58450;52.150;4.466;2023-03-21T07:32:38;58.32;52.84;74.94;;
66274;Laerm;58450;52.150;4.466;2023-03-21T07:35:08;57.79;53.91;64.06;;
66274;Laerm;58450;52.150;4.466;2023-03-21T07:37:37;56.93;52.36;63.30;;
66274;Laerm;58450;52.150;4.466;2023-03-21T07:40:08;55.45;50.79;73.97;;
66274;Laerm;58450;52.150;4.466;2023-03-21T07:42:39;56.07;50.63;78.14;;
66274;Laerm;58450;52.150;4.466;2023-03-21T07:45:10;55.45;50.64;77.52;;
66274;Laerm;58450;52.150;4.466;2023-03-21T07:47:40;57.30;50.48;83.15;;
66274;Laerm;58450;52.150;4.466;2023-03-21T07:50:09;53.28;49.64;61.06;;
66274;Laerm;58450;52.150;4.466;2023-03-21T07:52:36;52.99;49.81;58.15;;
66274;Laerm;58450;52.150;4.466;2023-03-21T07:55:07;53.26;49.23;62.06;;
66274;Laerm;58450;52.150;4.466;2023-03-21T07:57:35;52.83;48.77;60.59;;
66274;Laerm;58450;52.150;4.466;2023-03-21T08:00:03;52.56;48.81;63.94;;
66274;Laerm;58450;52.150;4.466;2023-03-21T08:02:32;52.93;49.29;67.49;;
66274;Laerm;58450;52.150;4.466;2023-03-21T08:04:59;53.00;49.55;58.63;;
66274;Laerm;58450;52.150;4.466;2023-03-21T08:07:27;53.83;49.93;62.09;;
66274;Laerm;58450;52.150;4.466;2023-03-21T08:09:55;55.86;50.43;75.72;;
66274;Laerm;58450;52.150;4.466;2023-03-21T08:12:24;58.73;49.23;85.62;;
66274;Laerm;58450;52.150;4.466;2023-03-21T08:14:51;56.26;47.65;82.83;;
66274;Laerm;58450;52.150;4.466;2023-03-21T08:17:19;56.24;48.58;81.69;;
66274;Laerm;58450;52.150;4.466;2023-03-21T08:19:46;57.62;48.31;86.92;;
66274;Laerm;58450;52.150;4.466;2023-03-21T08:22:14;55.25;47.72;80.45;;
66274;Laerm;58450;52.150;4.466;2023-03-21T08:24:42;57.50;48.52;85.31;;
66274;Laerm;58450;52.150;4.466;2023-03-21T08:27:10;55.35;48.92;79.21;;
66274;Laerm;58450;52.150;4.466;2023-03-21T08:29:39;56.86;49.13;80.82;;
66274;Laerm;58450;52.150;4.466;2023-03-21T08:32:08;57.10;48.89;79.44;;
66274;Laerm;58450;52.150;4.466;2023-03-21T08:34:35;55.12;47.92;75.34;;
66274;Laerm;58450;52.150;4.466;2023-03-21T08:37:03;53.38;47.21;72.08;;
66274;Laerm;58450;52.150;4.466;2023-03-21T08:39:30;54.44;49.12;72.81;;
66274;Laerm;58450;52.150;4.466;2023-03-21T08:41:58;54.10;47.60;73.80;;
66274;Laerm;58450;52.150;4.466;2023-03-21T08:44:26;55.14;50.34;68.92;;
66274;Laerm;58450;52.150;4.466;2023-03-21T08:46:55;54.14;47.27;67.28;;
66274;Laerm;58450;52.150;4.466;2023-03-21T08:49:22;53.60;48.70;73.39;;
66274;Laerm;58450;52.150;4.466;2023-03-21T08:51:54;53.36;47.92;64.98;;
66274;Laerm;58450;52.150;4.466;2023-03-21T08:54:22;52.51;47.82;69.36;;
66274;Laerm;58450;52.150;4.466;2023-03-21T08:56:50;52.27;48.10;62.76;;
66274;Laerm;58450;52.150;4.466;2023-03-21T08:59:18;53.10;47.86;70.74;;
66274;Laerm;58450;52.150;4.466;2023-03-21T09:01:45;51.47;46.86;67.95;;
66274;Laerm;58450;52.150;4.466;2023-03-21T09:04:14;51.64;47.10;59.81;;
66274;Laerm;58450;52.150;4.466;2023-03-21T09:06:44;50.44;46.17;59.94;;
66274;Laerm;58450;52.150;4.466;2023-03-21T09:09:14;52.43;46.90;64.65;;
66274;Laerm;58450;52.150;4.466;2023-03-21T09:11:41;52.04;47.09;73.03;;
66274;Laerm;58450;52.150;4.466;2023-03-21T09:14:09;53.90;46.12;72.16;;
66274;Laerm;58450;52.150;4.466;2023-03-21T09:16:37;51.89;47.72;63.45;;
66274;Laerm;58450;52.150;4.466;2023-03-21T09:19:04;51.70;47.34;60.59;;
66274;Laerm;58450;52.150;4.466;2023-03-21T09:21:35;52.40;47.04;69.57;;
66274;Laerm;58450;52.150;4.466;2023-03-21T09:24:04;52.06;47.17;66.23;;
66274;Laerm;58450;52.150;4.466;2023-03-21T09:26:32;52.24;47.06;61.21;;
66274;Laerm;58450;52.150;4.466;2023-03-21T09:29:00;52.17;48.30;61.08;;
66274;Laerm;58450;52.150;4.466;2023-03-21T09:31:31;52.36;48.61;58.63;;
66274;Laerm;58450;52.150;4.466;2023-03-21T09:33:59;53.10;49.01;71.13;;
66274;Laerm;58450;52.150;4.466;2023-03-21T09:36:27;54.01;49.81;73.25;;
66274;Laerm;58450;52.150;4.466;2023-03-21T09:38:58;54.83;49.27;74.22;;
66274;Laerm;58450;52.150;4.466;2023-03-21T09:41:41;55.04;50.86;67.59;;
66274;Laerm;58450;52.150;4.466;2023-03-21T09:44:38;55.50;49.83;73.67;;
66274;Laerm;58450;52.150;4.466;2023-03-21T09:47:16;53.99;48.97;70.12;;
66274;Laerm;58450;52.150;4.466;2023-03-21T09:49:52;55.56;50.03;74.78;;
66274;Laerm;58450;52.150;4.466;2023-03-21T09:52:31;54.65;49.27;73.38;;
66274;Laerm;58450;52.150;4.466;2023-03-21T09:55:03;53.86;49.14;63.03;;
66274;Laerm;58450;52.150;4.466;2023-03-21T09:57:46;55.43;49.71;75.08;;
66274;Laerm;58450;52.150;4.466;2023-03-21T10:00:23;56.18;49.39;77.33;;
66274;Laerm;58450;52.150;4.466;2023-03-21T10:02:59;54.52;48.99;74.79;;
66274;Laerm;58450;52.150;4.466;2023-03-21T10:05:32;54.98;49.50;64.68;;
66274;Laerm;58450;52.150;4.466;2023-03-21T10:08:05;55.09;49.68;68.85;;
66274;Laerm;58450;52.150;4.466;2023-03-21T10:10:44;55.12;48.98;73.72;;
66274;Laerm;58450;52.150;4.466;2023-03-21T10:13:19;56.16;49.95;73.20;;
66274;Laerm;58450;52.150;4.466;2023-03-21T10:15:49;55.40;49.49;75.04;;
66274;Laerm;58450;52.150;4.466;2023-03-21T10:18:22;55.57;48.56;75.87;;
66274;Laerm;58450;52.150;4.466;2023-03-21T10:20:51;54.58;47.24;77.44;;
66274;Laerm;58450;52.150;4.466;2023-03-21T10:23:24;55.36;48.24;68.74;;
66274;Laerm;58450;52.150;4.466;2023-03-21T10:26:01;54.47;49.51;69.89;;
66274;Laerm;58450;52.150;4.466;2023-03-21T10:28:36;53.82;48.60;67.54;;
66274;Laerm;58450;52.150;4.466;2023-03-21T10:31:07;55.72;49.21;75.52;;
66274;Laerm;58450;52.150;4.466;2023-03-21T10:33:39;54.73;49.68;73.14;;
66274;Laerm;58450;52.150;4.466;2023-03-21T10:36:12;55.05;49.54;74.28;;
66274;Laerm;58450;52.150;4.466;2023-03-21T10:38:46;56.62;50.38;73.64;;
66274;Laerm;58450;52.150;4.466;2023-03-21T10:41:16;54.96;49.31;70.42;;
66274;Laerm;58450;52.150;4.466;2023-03-21T10:43:46;54.63;48.97;69.92;;
66274;Laerm;58450;52.150;4.466;2023-03-21T10:46:29;55.03;49.63;67.91;;
66274;Laerm;58450;52.150;4.466;2023-03-21T10:48:57;55.31;49.17;65.21;;
66274;Laerm;58450;52.150;4.466;2023-03-21T10:51:29;53.78;48.18;66.41;;
66274;Laerm;58450;52.150;4.466;2023-03-21T10:54:05;56.42;51.17;76.62;;
66274;Laerm;58450;52.150;4.466;2023-03-21T10:56:41;55.86;50.66;72.82;;
66274;Laerm;58450;52.150;4.466;2023-03-21T10:59:19;56.00;50.53;76.11;;
66274;Laerm;58450;52.150;4.466;2023-03-21T11:01:50;57.29;51.25;80.88;;
66274;Laerm;58450;52.150;4.466;2023-03-21T11:04:23;54.60;48.76;71.15;;
66274;Laerm;58450;52.150;4.466;2023-03-21T11:06:54;52.45;48.28;62.79;;
66274;Laerm;58450;52.150;4.466;2023-03-21T11:09:25;53.33;48.22;76.60;;
66274;Laerm;58450;52.150;4.466;2023-03-21T11:12:02;53.51;48.54;72.87;;
66274;Laerm;58450;52.150;4.466;2023-03-21T11:14:38;55.20;48.83;70.28;;
66274;Laerm;58450;52.150;4.466;2023-03-21T11:17:19;55.22;49.47;66.09;;
66274;Laerm;58450;52.150;4.466;2023-03-21T11:19:49;54.96;49.18;69.95;;
66274;Laerm;58450;52.150;4.466;2023-03-21T11:22:20;55.19;48.08;74.35;;
66274;Laerm;58450;52.150;4.466;2023-03-21T11:24:52;56.06;48.59;76.21;;
66274;Laerm;58450;52.150;4.466;2023-03-21T11:27:21;54.51;48.99;70.64;;
66274;Laerm;58450;52.150;4.466;2023-03-21T11:29:50;54.44;48.17;74.36;;
66274;Laerm;58450;52.150;4.466;2023-03-21T11:32:25;54.45;47.87;72.38;;
66274;Laerm;58450;52.150;4.466;2023-03-21T11:34:58;54.99;48.59;78.60;;
66274;Laerm;58450;52.150;4.466;2023-03-21T11:37:30;55.39;48.03;77.14;;
66274;Laerm;58450;52.150;4.466;2023-03-21T11:40:16;53.29;47.87;72.58;;
66274;Laerm;58450;52.150;4.466;2023-03-21T11:42:50;54.48;47.14;75.52;;
66274;Laerm;58450;52.150;4.466;2023-03-21T11:45:20;54.79;47.07;74.08;;
66274;Laerm;58450;52.150;4.466;2023-03-21T11:47:51;56.53;46.03;78.11;;
66274;Laerm;58450;52.150;4.466;2023-03-21T11:50:28;52.59;47.36;73.75;;
66274;Laerm;58450;52.150;4.466;2023-03-21T11:53:19;52.60;46.29;65.34;;
66274;Laerm;58450;52.150;4.466;2023-03-21T11:56:06;54.73;46.88;70.61;;
66274;Laerm;58450;52.150;4.466;2023-03-21T11:58:52;52.79;46.16;72.98;;
66274;Laerm;58450;52.150;4.466;2023-03-21T12:01:30;51.52;45.45;62.97;;
66274;Laerm;58450;52.150;4.466;2023-03-21T12:04:20;52.26;44.91;63.30;;
66274;Laerm;58450;52.150;4.466;2023-03-21T12:06:58;57.00;48.77;65.97;;
66274;Laerm;58450;52.150;4.466;2023-03-21T12:09:37;53.30;48.14;65.22;;
66274;Laerm;58450;52.150;4.466;2023-03-21T12:12:26;53.69;48.04;65.47;;
66274;Laerm;58450;52.150;4.466;2023-03-21T12:15:12;52.95;48.12;62.38;;
66274;Laerm;58450;52.150;4.466;2023-03-21T12:17:50;56.30;48.49;78.48;;
66274;Laerm;58450;52.150;4.466;2023-03-21T12:20:38;54.18;47.37;76.21;;
66274;Laerm;58450;52.150;4.466;2023-03-21T12:23:33;57.31;48.08;86.61;;
66274;Laerm;58450;52.150;4.466;2023-03-21T12:26:18;54.70;48.93;78.22;;
66274;Laerm;58450;52.150;4.466;2023-03-21T12:29:05;54.10;47.28;68.08;;
66274;Laerm;58450;52.150;4.466;2023-03-21T12:31:55;57.05;49.57;78.08;;
66274;Laerm;58450;52.150;4.466;2023-03-21T12:35:01;54.57;48.76;76.05;;
66274;Laerm;58450;52.150;4.466;2023-03-21T12:37:40;60.50;49.05;77.80;;
66274;Laerm;58450;52.150;4.466;2023-03-21T12:40:29;55.87;49.83;66.54;;
66274;Laerm;58450;52.150;4.466;2023-03-21T12:43:27;56.98;50.15;79.18;;
66274;Laerm;58450;52.150;4.466;2023-03-21T12:46:02;56.16;49.92;81.27;;
66274;Laerm;58450;52.150;4.466;2023-03-21T12:48:41;59.64;50.87;77.50;;
66274;Laerm;58450;52.150;4.466;2023-03-21T12:51:15;54.34;49.57;63.59;;
66274;Laerm;58450;52.150;4.466;2023-03-21T12:53:55;59.07;50.33;83.61;;
66274;Laerm;58450;52.150;4.466;2023-03-21T12:56:30;56.83;49.70;77.85;;
66274;Laerm;58450;52.150;4.466;2023-03-21T12:59:16;55.22;50.50;73.65;;
66274;Laerm;58450;52.150;4.466;2023-03-21T13:01:47;55.31;49.10;81.30;;
66274;Laerm;58450;52.150;4.466;2023-03-21T13:04:37;54.86;49.31;78.72;;
66274;Laerm;58450;52.150;4.466;2023-03-21T13:07:12;56.66;48.85;81.98;;
66274;Laerm;58450;52.150;4.466;2023-03-21T13:09:42;55.76;50.14;76.89;;
66274;Laerm;58450;52.150;4.466;2023-03-21T13:12:35;54.99;49.19;65.91;;
66274;Laerm;58450;52.150;4.466;2023-03-21T13:15:39;54.62;48.11;76.55;;
66274;Laerm;58450;52.150;4.466;2023-03-21T13:18:24;56.66;49.48;78.41;;
66274;Laerm;58450;52.150;4.466;2023-03-21T13:20:59;56.26;48.93;78.54;;
66274;Laerm;58450;52.150;4.466;2023-03-21T13:23:35;55.77;49.80;73.29;;
66274;Laerm;58450;52.150;4.466;2023-03-21T13:26:09;56.18;49.71;66.46;;
66274;Laerm;58450;52.150;4.466;2023-03-21T13:28:39;55.43;50.88;66.06;;
66274;Laerm;58450;52.150;4.466;2023-03-21T13:31:18;55.55;48.24;79.61;;
66274;Laerm;58450;52.150;4.466;2023-03-21T13:33:49;55.96;49.50;76.88;;
66274;Laerm;58450;52.150;4.466;2023-03-21T13:36:26;56.29;49.42;82.50;;
66274;Laerm;58450;52.150;4.466;2023-03-21T13:39:01;56.89;49.50;79.50;;
66274;Laerm;58450;52.150;4.466;2023-03-21T13:41:34;55.76;50.38;76.33;;
66274;Laerm;58450;52.150;4.466;2023-03-21T13:44:21;56.12;49.53;76.76;;
66274;Laerm;58450;52.150;4.466;2023-03-21T13:46:58;55.34;49.28;75.27;;
66274;Laerm;58450;52.150;4.466;2023-03-21T13:49:33;56.69;50.39;66.12;;
66274;Laerm;58450;52.150;4.466;2023-03-21T13:52:27;55.94;50.40;78.85;;
66274;Laerm;58450;52.150;4.466;2023-03-21T13:54:56;55.34;49.69;68.07;;
66274;Laerm;58450;52.150;4.466;2023-03-21T13:57:38;54.02;49.14;65.59;;
66274;Laerm;58450;52.150;4.466;2023-03-21T14:00:19;53.94;48.67;64.92;;
66274;Laerm;58450;52.150;4.466;2023-03-21T14:02:57;53.46;49.66;66.38;;
66274;Laerm;58450;52.150;4.466;2023-03-21T14:05:27;53.98;49.75;69.99;;
66274;Laerm;58450;52.150;4.466;2023-03-21T14:08:00;55.91;50.32;69.72;;
66274;Laerm;58450;52.150;4.466;2023-03-21T14:10:34;58.72;49.52;85.63;;
66274;Laerm;58450;52.150;4.466;2023-03-21T14:13:05;54.53;49.52;70.80;;
66274;Laerm;58450;52.150;4.466;2023-03-21T14:15:39;54.93;49.49;67.08;;
66274;Laerm;58450;52.150;4.466;2023-03-21T14:18:14;58.58;48.36;82.28;;
66274;Laerm;58450;52.150;4.466;2023-03-21T14:20:42;58.50;49.51;75.68;;
66274;Laerm;58450;52.150;4.466;2023-03-21T14:23:15;59.59;51.71;80.84;;
66274;Laerm;58450;52.150;4.466;2023-03-21T14:25:44;56.54;50.12;77.44;;